Time;durP1;ratioP1;P1;durP2;ratioP2;P2;SDS_P1;SDS_P2;PMS_P1;PMS_P2;Temp;Humidity;BMP_temperature;BMP_pressure;BME280_temperature;BME280_humidity;BME280_pressure;Samples;Min_cycle;Max_cycle;Signal;HPM_P1;HPM_P2
2022/05/18 00:00:56;;;;;;;15.13;10.25;;;17.20;99.90;;;;;;5067225;28;20496;-78
2022/05/18 00:03:26;;;;;;;14.70;8.50;;;17.10;99.90;;;;;;5068197;28;20087;-77
2022/05/18 00:05:52;;;;;;;13.38;9.18;;;17.10;99.90;;;;;;5051290;28;20087;-77
2022/05/18 00:08:18;;;;;;;16.30;9.35;;;17.10;99.90;;;;;;5068181;28;20464;-77
2022/05/18 00:10:46;;;;;;;10.82;7.78;;;17.10;99.90;;;;;;5067857;28;20451;-77
2022/05/18 00:13:12;;;;;;;14.93;9.18;;;17.10;99.90;;;;;;5069003;28;20051;-77
2022/05/18 00:15:39;;;;;;;14.63;9.07;;;17.00;99.90;;;;;;5051557;28;20399;-77
2022/05/18 00:18:06;;;;;;;11.68;7.65;;;17.00;99.90;;;;;;5068311;28;20090;-77
2022/05/18 00:20:32;;;;;;;13.88;7.88;;;17.00;99.90;;;;;;5069564;28;20131;-77
2022/05/18 00:23:01;;;;;;;11.07;7.85;;;17.00;99.90;;;;;;5066988;28;20099;-77
2022/05/18 00:25:35;;;;;;;11.50;8.23;;;16.90;99.90;;;;;;5051314;28;20443;-77
2022/05/18 00:28:01;;;;;;;12.35;6.88;;;16.90;99.90;;;;;;5069618;28;20048;-77
2022/05/18 00:30:28;;;;;;;12.45;8.20;;;16.90;99.90;;;;;;5068189;28;20100;-78
2022/05/18 00:32:54;;;;;;;14.15;6.97;;;16.90;99.90;;;;;;5069173;28;20055;-78
2022/05/18 00:35:22;;;;;;;11.32;6.40;;;16.90;99.90;;;;;;5066428;28;20045;-77
2022/05/18 00:37:48;;;;;;;8.02;6.25;;;16.80;99.90;;;;;;5069097;28;20036;-77
2022/05/18 00:40:16;;;;;;;9.60;6.07;;;16.80;99.90;;;;;;5068440;28;20055;-78
2022/05/18 00:42:42;;;;;;;13.75;6.15;;;16.70;99.90;;;;;;5068616;28;20119;-78
2022/05/18 00:45:09;;;;;;;10.98;6.03;;;16.70;99.90;;;;;;5069460;28;20159;-77
2022/05/18 00:47:35;;;;;;;10.40;6.03;;;16.60;99.90;;;;;;5067608;28;20040;-78
2022/05/18 00:50:12;;;;;;;9.05;5.22;;;16.60;99.90;;;;;;5069146;28;20408;-77
2022/05/18 00:52:43;;;;;;;9.20;5.22;;;16.60;99.90;;;;;;5067865;28;20044;-77
2022/05/18 00:55:13;;;;;;;12.02;6.47;;;16.50;99.90;;;;;;5067073;28;20119;-78
2022/05/18 00:58:11;;;;;;;7.53;5.20;;;16.50;99.90;;;;;;5065965;28;20056;-78
2022/05/18 01:00:38;;;;;;;11.70;5.78;;;16.50;99.90;;;;;;5063019;28;20101;-78
2022/05/18 01:03:35;;;;;;;7.65;4.70;;;16.40;99.90;;;;;;5068629;28;20120;-77
2022/05/18 01:06:21;;;;;;;12.45;5.25;;;16.40;99.90;;;;;;5066056;28;20063;-77
2022/05/18 01:09:02;;;;;;;13.15;5.25;;;16.40;99.90;;;;;;5067615;28;20044;-77
2022/05/18 01:11:28;;;;;;;10.85;4.93;;;16.30;99.90;;;;;;5067133;28;20044;-77
2022/05/18 01:13:55;;;;;;;6.78;4.72;;;16.30;99.90;;;;;;5065790;28;20507;-77
2022/05/18 01:16:22;;;;;;;6.05;4.53;;;16.20;99.90;;;;;;5066252;28;20523;-78
2022/05/18 01:18:50;;;;;;;9.82;4.43;;;16.20;99.90;;;;;;5066265;28;20102;-77
2022/05/18 01:21:16;;;;;;;11.43;4.72;;;16.20;99.90;;;;;;5066257;28;20036;-77
2022/05/18 01:23:56;;;;;;;12.60;5.03;;;16.20;99.90;;;;;;5067144;28;20048;-77
2022/05/18 01:26:36;;;;;;;9.23;5.03;;;16.10;99.90;;;;;;5065485;28;20048;-77
2022/05/18 01:29:05;;;;;;;7.88;4.78;;;16.10;99.90;;;;;;5066729;28;20053;-77
2022/05/18 01:31:52;;;;;;;8.30;4.57;;;16.10;99.90;;;;;;5049654;28;20084;-78
2022/05/18 01:34:22;;;;;;;5.85;3.78;;;16.10;99.90;;;;;;5066032;28;20040;-78
2022/05/18 01:36:49;;;;;;;5.85;4.30;;;16.10;99.90;;;;;;5050389;28;20071;-78
2022/05/18 01:39:37;;;;;;;11.05;4.07;;;16.10;99.90;;;;;;5065409;28;20127;-78
2022/05/18 01:42:27;;;;;;;14.25;4.60;;;16.10;99.90;;;;;;5066540;28;20057;-78
2022/05/18 01:44:53;;;;;;;7.20;4.25;;;16.10;99.90;;;;;;5068280;28;20048;-78
2022/05/18 01:47:19;;;;;;;10.13;4.88;;;16.00;99.90;;;;;;5065306;28;20102;-78
2022/05/18 01:49:46;;;;;;;8.80;5.03;;;16.00;99.90;;;;;;5049898;28;20040;-78
2022/05/18 01:52:12;;;;;;;7.25;4.28;;;16.00;99.90;;;;;;5064904;28;20250;-78
2022/05/18 01:54:41;;;;;;;8.75;4.40;;;16.00;99.90;;;;;;5066624;28;20403;-78
2022/05/18 01:57:07;;;;;;;7.82;4.55;;;15.90;99.90;;;;;;5048653;28;20561;-78
2022/05/18 01:59:33;;;;;;;9.82;4.40;;;15.90;99.90;;;;;;5066238;28;20432;-78
2022/05/18 02:01:59;;;;;;;13.13;4.80;;;15.90;99.90;;;;;;5066426;28;20040;-78
2022/05/18 02:04:26;;;;;;;6.82;3.85;;;15.90;99.90;;;;;;5065069;28;20058;-77
2022/05/18 02:06:52;;;;;;;9.75;4.53;;;15.90;99.90;;;;;;5066211;28;20611;-78
2022/05/18 02:09:19;;;;;;;7.13;4.00;;;15.80;99.90;;;;;;5048153;28;20128;-78
2022/05/18 02:11:45;;;;;;;6.55;3.83;;;15.80;99.90;;;;;;5049462;28;20100;-78
2022/05/18 02:14:11;;;;;;;10.00;4.45;;;15.80;99.90;;;;;;5065364;28;20041;-78
2022/05/18 02:16:37;;;;;;;11.80;4.40;;;15.40;99.90;;;;;;5065315;28;20049;-78
2022/05/18 02:19:03;;;;;;;7.97;3.47;;;15.80;99.90;;;;;;5066078;28;20051;-78
2022/05/18 02:21:29;;;;;;;6.82;3.85;;;15.70;99.90;;;;;;5032096;28;20507;-78
2022/05/18 02:23:54;;;;;;;5.22;3.53;;;15.70;99.90;;;;;;5049426;28;20071;-78
2022/05/18 02:26:21;;;;;;;7.28;3.40;;;15.70;99.90;;;;;;5066330;28;20437;-78
2022/05/18 02:28:47;;;;;;;6.03;3.60;;;16.00;99.90;;;;;;5049552;28;20037;-78
2022/05/18 02:31:13;;;;;;;6.07;3.95;;;15.60;99.90;;;;;;5065225;28;20041;-78
2022/05/18 02:33:40;;;;;;;11.48;4.00;;;15.60;99.90;;;;;;5049176;28;20040;-78
2022/05/18 02:36:07;;;;;;;6.05;3.95;;;15.60;99.90;;;;;;5049578;28;20087;-78
2022/05/18 02:38:36;;;;;;;6.07;3.63;;;15.60;99.90;;;;;;5065000;28;20084;-78
2022/05/18 02:41:02;;;;;;;7.63;3.95;;;15.60;99.90;;;;;;5065868;28;20048;-78
2022/05/18 02:43:28;;;;;;;6.82;3.28;;;15.50;99.90;;;;;;5064949;28;20494;-78
2022/05/18 02:46:07;;;;;;;12.70;4.20;;;15.50;99.90;;;;;;5065733;28;20044;-78
2022/05/18 02:48:33;;;;;;;9.20;3.97;;;15.50;99.90;;;;;;5065766;28;20079;-78
2022/05/18 02:50:59;;;;;;;6.88;4.47;;;15.50;99.90;;;;;;5066495;28;20484;-78
2022/05/18 02:53:25;;;;;;;5.55;3.80;;;15.40;99.90;;;;;;5066065;28;20048;-78
2022/05/18 02:56:06;;;;;;;5.38;3.47;;;15.40;99.90;;;;;;5064764;28;20474;-78
2022/05/18 02:58:37;;;;;;;3.97;3.25;;;15.40;99.90;;;;;;5065977;28;20494;-77
2022/05/18 03:01:07;;;;;;;7.03;3.75;;;15.30;99.90;;;;;;5066619;28;20041;-77
2022/05/18 03:03:33;;;;;;;6.28;3.83;;;15.70;99.90;;;;;;5065320;28;20049;-79
2022/05/18 03:05:59;;;;;;;10.02;4.30;;;15.30;99.90;;;;;;5066205;28;20090;-77
2022/05/18 03:08:25;;;;;;;12.73;4.05;;;15.20;99.90;;;;;;5064452;28;20072;-78
2022/05/18 03:10:51;;;;;;;8.18;3.58;;;15.20;99.90;;;;;;5065780;28;20049;-77
2022/05/18 03:13:16;;;;;;;5.25;3.38;;;15.20;99.90;;;;;;5047424;28;20068;-77
2022/05/18 03:15:42;;;;;;;5.20;3.22;;;15.20;99.90;;;;;;5032362;28;20048;-77
2022/05/18 03:18:08;;;;;;;4.82;3.72;;;15.20;99.90;;;;;;5064558;28;20041;-77
2022/05/18 03:23:36;;;;;;;7.15;3.80;;;15.20;99.90;;;;;;5055212;28;20105;-77
2022/05/18 03:26:08;;;;;;;5.63;3.30;;;15.20;99.90;;;;;;5039889;28;20052;-78
2022/05/18 03:28:35;;;;;;;9.77;4.10;;;15.20;99.90;;;;;;5052499;28;20051;-77
2022/05/18 03:31:01;;;;;;;6.65;3.47;;;15.30;99.90;;;;;;5067901;28;20131;-78
2022/05/18 03:33:27;;;;;;;8.40;3.63;;;15.20;99.90;;;;;;5068138;28;20453;-77
2022/05/18 03:35:53;;;;;;;4.55;3.45;;;15.30;99.90;;;;;;5052595;28;20049;-77
2022/05/18 03:38:20;;;;;;;3.83;3.20;;;15.20;99.90;;;;;;5050801;28;20070;-78
2022/05/18 03:40:46;;;;;;;10.38;3.97;;;15.20;99.90;;;;;;5069207;28;20494;-78
2022/05/18 03:43:12;;;;;;;7.30;3.95;;;15.20;99.90;;;;;;5067406;28;20131;-78
2022/05/18 03:45:38;;;;;;;6.68;3.80;;;15.20;99.90;;;;;;5035297;28;20532;-78
2022/05/18 03:48:08;;;;;;;11.95;4.20;;;15.10;99.90;;;;;;5051325;28;20048;-78
2022/05/18 03:50:37;;;;;;;9.60;3.70;;;15.20;99.90;;;;;;5068085;28;20051;-78
2022/05/18 03:53:03;;;;;;;9.15;3.70;;;15.20;99.90;;;;;;5070126;28;20119;-78
2022/05/18 03:55:30;;;;;;;7.47;4.55;;;15.20;99.90;;;;;;5068648;28;20040;-78
2022/05/18 03:57:56;;;;;;;7.63;4.43;;;15.20;99.90;;;;;;5069798;28;20048;-78
2022/05/18 04:00:24;;;;;;;6.38;3.90;;;15.20;99.90;;;;;;5068395;28;20523;-79
2022/05/18 04:02:50;;;;;;;9.55;4.03;;;15.20;99.90;;;;;;5069527;28;20507;-76
2022/05/18 04:05:20;;;;;;;4.53;3.47;;;15.20;99.90;;;;;;5069061;28;20032;-77
2022/05/18 04:07:46;;;;;;;6.38;3.92;;;15.30;99.90;;;;;;5068981;28;20048;-79
2022/05/18 04:10:14;;;;;;;6.82;3.83;;;15.30;99.90;;;;;;5069959;28;20231;-78
2022/05/18 04:12:39;;;;;;;7.95;4.40;;;15.30;99.90;;;;;;5068389;28;20040;-78
2022/05/18 04:15:05;;;;;;;8.13;4.18;;;15.20;99.90;;;;;;5069823;28;20373;-78
2022/05/18 04:17:31;;;;;;;8.80;3.40;;;15.30;99.90;;;;;;5068385;28;20044;-78
2022/05/18 04:19:57;;;;;;;5.90;3.50;;;15.30;99.90;;;;;;5070950;28;20032;-78
2022/05/18 04:22:26;;;;;;;8.40;3.92;;;15.40;99.90;;;;;;5069682;28;20123;-77
2022/05/18 04:24:52;;;;;;;6.22;3.83;;;15.40;99.90;;;;;;5068743;28;20047;-77
2022/05/18 04:27:18;;;;;;;6.50;3.65;;;15.40;99.90;;;;;;5069746;28;20040;-78
2022/05/18 04:29:44;;;;;;;7.75;4.25;;;15.40;99.90;;;;;;5067057;28;20187;-78
2022/05/18 04:32:10;;;;;;;5.53;3.90;;;15.40;99.90;;;;;;5069712;28;20428;-77
2022/05/18 04:34:36;;;;;;;9.00;4.07;;;15.50;99.90;;;;;;5067936;28;20055;-77
2022/05/18 04:37:02;;;;;;;7.47;4.00;;;15.50;99.90;;;;;;5067339;28;20045;-75
2022/05/18 04:39:27;;;;;;;8.80;4.32;;;15.60;99.90;;;;;;5068079;28;20044;-76
2022/05/18 04:41:53;;;;;;;7.10;4.57;;;15.60;99.90;;;;;;5068201;28;20048;-75
2022/05/18 04:44:19;;;;;;;7.38;4.95;;;15.70;99.90;;;;;;5069400;28;20033;-76
2022/05/18 04:46:45;;;;;;;4.90;4.03;;;15.80;99.90;;;;;;5067697;28;20416;-75
2022/05/18 04:49:11;;;;;;;6.07;4.18;;;15.90;99.90;;;;;;5068807;28;20040;-75
2022/05/18 04:51:37;;;;;;;8.05;4.57;;;16.00;99.90;;;;;;5066051;28;20067;-75
2022/05/18 04:54:03;;;;;;;11.07;4.50;;;16.10;99.90;;;;;;5067347;28;20049;-75
2022/05/18 04:56:29;;;;;;;6.90;4.93;;;16.20;99.90;;;;;;5067759;28;20053;-76
2022/05/18 04:58:55;;;;;;;5.60;3.85;;;16.30;99.90;;;;;;5068194;28;20047;-75
2022/05/18 05:01:21;;;;;;;8.52;4.50;;;16.30;99.90;;;;;;5068942;28;20190;-75
2022/05/18 05:03:47;;;;;;;7.03;4.03;;;16.50;99.90;;;;;;5067245;28;20472;-74
2022/05/18 05:06:12;;;;;;;13.63;4.50;;;16.50;99.90;;;;;;5068590;28;20051;-74
2022/05/18 05:08:39;;;;;;;5.93;3.92;;;16.60;99.90;;;;;;5065692;28;20131;-73
2022/05/18 05:11:06;;;;;;;7.45;4.95;;;16.70;99.90;;;;;;5068423;28;20102;-73
2022/05/18 05:13:33;;;;;;;7.22;4.55;;;16.70;99.90;;;;;;5066270;28;20456;-74
2022/05/18 05:16:10;;;;;;;6.45;4.25;;;16.90;99.90;;;;;;5066189;28;20125;-75
2022/05/18 05:18:36;;;;;;;11.73;4.75;;;16.80;99.90;;;;;;5068896;28;20037;-74
2022/05/18 05:21:02;;;;;;;12.63;4.70;;;16.80;99.90;;;;;;5066897;28;20102;-75
2022/05/18 05:23:28;;;;;;;9.65;4.70;;;16.90;99.90;;;;;;5068252;28;20510;-74
2022/05/18 05:25:56;;;;;;;7.38;4.50;;;16.90;99.90;;;;;;5066944;28;20045;-75
2022/05/18 05:28:22;;;;;;;7.50;4.90;;;16.90;99.90;;;;;;5068132;28;20036;-75
2022/05/18 05:30:48;;;;;;;7.38;4.55;;;16.90;99.90;;;;;;5067836;28;20133;-76
2022/05/18 05:33:14;;;;;;;7.85;4.20;;;16.90;99.90;;;;;;5067301;28;20036;-76
2022/05/18 05:35:41;;;;;;;8.02;5.05;;;17.00;99.90;;;;;;5068287;28;20119;-77
2022/05/18 05:38:08;;;;;;;4.95;4.25;;;17.10;99.90;;;;;;5066896;28;20123;-76
2022/05/18 05:40:34;;;;;;;6.20;4.22;;;17.20;99.90;;;;;;5067784;28;20500;-77
2022/05/18 05:43:08;;;;;;;6.85;5.03;;;17.30;99.90;;;;;;5066332;28;20037;-77
2022/05/18 05:45:34;;;;;;;8.70;4.72;;;17.30;99.90;;;;;;5067500;28;20128;-77
2022/05/18 05:48:01;;;;;;;6.80;5.25;;;17.40;99.90;;;;;;5068298;28;20412;-79
2022/05/18 05:50:27;;;;;;;5.05;3.88;;;17.50;99.90;;;;;;5066999;28;20112;-78
2022/05/18 05:52:53;;;;;;;9.00;5.20;;;17.60;99.90;;;;;;5068035;28;20048;-77
2022/05/18 05:55:19;;;;;;;9.57;5.30;;;17.60;99.90;;;;;;5066663;28;20028;-78
2022/05/18 05:57:45;;;;;;;7.63;4.97;;;17.70;99.90;;;;;;5066329;28;20057;-80
2022/05/18 06:00:12;;;;;;;11.15;4.90;;;17.80;99.90;;;;;;5066401;28;20055;-79
2022/05/18 06:02:38;;;;;;;8.15;4.72;;;17.80;99.90;;;;;;5066453;28;20051;-79
2022/05/18 06:05:04;;;;;;;9.07;5.45;;;17.90;99.90;;;;;;5066046;28;20484;-77
2022/05/18 06:07:31;;;;;;;6.60;5.13;;;18.00;99.90;;;;;;5048640;28;20053;-77
2022/05/18 06:09:57;;;;;;;9.38;4.93;;;18.10;99.90;;;;;;5067791;28;20484;-77
2022/05/18 06:12:26;;;;;;;11.13;5.15;;;18.20;99.90;;;;;;5065083;28;20049;-78
2022/05/18 06:14:52;;;;;;;10.70;5.10;;;18.20;99.90;;;;;;5068149;28;20044;-77
2022/05/18 06:17:17;;;;;;;8.50;5.13;;;18.30;99.90;;;;;;5048344;28;20045;-78
2022/05/18 06:19:44;;;;;;;13.95;5.35;;;18.40;99.90;;;;;;5066303;28;20132;-78
2022/05/18 06:22:09;;;;;;;8.43;4.65;;;18.50;99.90;;;;;;5066265;28;20126;-78
2022/05/18 06:24:36;;;;;;;7.53;4.97;;;18.60;99.90;;;;;;5032223;28;20373;-78
2022/05/18 06:27:03;;;;;;;8.43;4.82;;;18.70;99.90;;;;;;5066330;28;20055;-78
2022/05/18 06:29:28;;;;;;;8.43;5.38;;;18.80;99.90;;;;;;5065237;28;20105;-79
2022/05/18 06:31:54;;;;;;;10.75;5.93;;;18.90;99.90;;;;;;5066078;28;20486;-77
2022/05/18 06:34:21;;;;;;;13.52;6.13;;;19.00;99.90;;;;;;5015611;28;20037;-77
2022/05/18 06:36:49;;;;;;;8.00;4.93;;;19.20;99.90;;;;;;5049452;28;20048;-78
2022/05/18 06:39:18;;;;;;;6.85;5.22;;;19.20;99.90;;;;;;5066214;28;20086;-78
2022/05/18 06:41:46;;;;;;;9.88;5.47;;;19.40;99.90;;;;;;5048893;28;20059;-77
2022/05/18 06:44:12;;;;;;;6.72;4.68;;;19.50;99.90;;;;;;5067788;28;20048;-77
2022/05/18 06:46:39;;;;;;;7.70;5.28;;;19.60;99.90;;;;;;5064676;28;20053;-77
2022/05/18 06:49:10;;;;;;;9.25;5.38;;;19.70;99.90;;;;;;5066119;28;20036;-77
2022/05/18 06:51:39;;;;;;;8.45;5.50;;;19.80;99.90;;;;;;5064588;28;20060;-77
2022/05/18 06:54:05;;;;;;;11.95;5.18;;;19.90;99.90;;;;;;5065336;28;20044;-78
2022/05/18 06:56:34;;;;;;;13.35;6.13;;;20.00;99.90;;;;;;5052802;28;20052;-79
2022/05/18 06:59:01;;;;;;;14.65;6.10;;;20.10;99.90;;;;;;5068470;28;20170;-78
2022/05/18 07:01:30;;;;;;;12.20;5.60;;;20.30;99.90;;;;;;5053361;28;20068;-78
2022/05/18 07:03:57;;;;;;;8.43;5.38;;;20.40;99.90;;;;;;5035480;28;20036;-78
2022/05/18 07:06:24;;;;;;;10.57;7.03;;;20.40;99.90;;;;;;5052598;28;20044;-78
2022/05/18 07:08:51;;;;;;;11.20;5.95;;;20.60;99.90;;;;;;5052108;28;20094;-78
2022/05/18 07:11:18;;;;;;;10.18;5.60;;;20.60;99.90;;;;;;5052269;28;20041;-77
2022/05/18 07:13:46;;;;;;;8.35;6.05;;;20.70;99.90;;;;;;5069470;28;20051;-78
2022/05/18 07:16:12;;;;;;;10.27;5.88;;;20.80;99.90;;;;;;5051548;28;20443;-78
2022/05/18 07:18:38;;;;;;;6.85;5.40;;;20.90;99.90;;;;;;5069714;28;20049;-78
2022/05/18 07:21:06;;;;;;;7.57;5.55;;;21.00;99.90;;;;;;5069218;28;20157;-78
2022/05/18 07:23:32;;;;;;;11.80;6.55;;;21.20;99.90;;;;;;5070281;28;20510;-78
2022/05/18 07:25:59;;;;;;;10.70;5.75;;;21.30;99.90;;;;;;5070036;28;20048;-78
2022/05/18 07:28:26;;;;;;;7.93;5.63;;;21.40;99.90;;;;;;5068669;28;20041;-78
2022/05/18 07:30:52;;;;;;;14.40;6.60;;;21.50;99.90;;;;;;5069420;28;20055;-78
2022/05/18 07:33:22;;;;;;;10.07;6.07;;;21.70;99.90;;;;;;5067535;28;20048;-78
2022/05/18 07:35:51;;;;;;;8.63;5.45;;;21.70;99.90;;;;;;5069367;28;20166;-81
2022/05/18 07:38:22;;;;;;;10.10;6.45;;;21.90;99.90;;;;;;5067768;28;20496;-78
2022/05/18 07:40:49;;;;;;;10.70;5.65;;;22.00;99.90;;;;;;5069076;28;20071;-79
2022/05/18 07:43:18;;;;;;;10.98;6.15;;;22.20;99.90;;;;;;5069002;28;20439;-79
2022/05/18 07:45:45;;;;;;;13.45;6.65;;;22.30;99.90;;;;;;5051398;28;20049;-77
2022/05/18 07:48:11;;;;;;;10.75;5.55;;;22.40;99.90;;;;;;5069150;28;20498;-80
2022/05/18 07:50:36;;;;;;;9.68;4.93;;;22.60;99.90;;;;;;5033827;28;20079;-79
2022/05/18 07:53:02;;;;;;;8.70;5.38;;;22.70;99.90;;;;;;5068131;28;20143;-78
2022/05/18 07:55:28;;;;;;;10.43;5.28;;;22.80;99.90;;;;;;5067335;28;20055;-79
2022/05/18 07:57:54;;;;;;;8.02;4.35;;;22.80;99.90;;;;;;5067869;28;20044;-79
2022/05/18 08:00:23;;;;;;;12.95;5.13;;;23.00;99.90;;;;;;5067985;28;20462;-78
2022/05/18 08:02:49;;;;;;;9.77;4.10;;;23.00;99.90;;;;;;5067272;28;20052;-78
2022/05/18 08:05:15;;;;;;;9.80;3.70;;;23.20;99.90;;;;;;5069627;28;20059;-79
2022/05/18 08:07:45;;;;;;;4.30;2.92;;;23.30;99.90;;;;;;5068423;28;20049;-78
2022/05/18 08:15:41;;;;;;;6.22;2.90;;;23.80;99.90;;;;;;5067125;28;20047;-78
2022/05/18 08:18:07;;;;;;;6.75;2.58;;;23.90;99.90;;;;;;5052004;28;20037;-78
2022/05/18 08:20:33;;;;;;;4.50;3.03;;;24.10;99.90;;;;;;5067130;28;20075;-78
2022/05/18 08:22:59;;;;;;;5.88;2.72;;;24.20;99.90;;;;;;5068257;28;20037;-79
2022/05/18 08:25:25;;;;;;;5.35;3.10;;;24.50;99.90;;;;;;5050251;28;20048;-78
2022/05/18 08:27:51;;;;;;;4.80;3.05;;;24.70;99.70;;;;;;5050986;28;20036;-79
2022/05/18 08:30:19;;;;;;;9.77;3.50;;;25.00;98.40;;;;;;5067297;28;20094;-79
2022/05/18 08:32:45;;;;;;;5.90;3.33;;;25.20;97.50;;;;;;5067329;28;20048;-79
2022/05/18 08:35:16;;;;;;;6.90;3.80;;;25.30;97.30;;;;;;5068417;28;20044;-79
2022/05/18 08:37:44;;;;;;;5.32;2.80;;;25.40;96.30;;;;;;5049753;28;20091;-79
2022/05/18 08:40:34;;;;;;;5.90;2.40;;;25.40;96.30;;;;;;5067401;28;20037;-79
2022/05/18 08:43:03;;;;;;;2.90;1.75;;;25.50;95.90;;;;;;5059988;28;20048;-79
2022/05/18 08:45:32;;;;;;;5.05;2.42;;;25.80;95.40;;;;;;5049836;28;20127;-79
2022/05/18 08:48:42;;;;;;;3.55;1.70;;;25.90;93.70;;;;;;5067487;28;20513;-79
2022/05/18 08:51:45;;;;;;;3.30;1.30;;;26.10;77.90;;;;;;5037579;28;20060;-79
2022/05/18 08:54:14;;;;;;;;;;;26.10;71.10;;;;;;5066911;28;20048;-79
2022/05/18 08:56:43;;;;;;;5.40;1.45;;;26.10;75.20;;;;;;5050973;28;19920;-79
2022/05/18 08:59:17;;;;;;;2.85;1.63;;;26.10;89.70;;;;;;5065876;28;20048;-79
2022/05/18 09:01:46;;;;;;;4.38;1.77;;;26.10;81.80;;;;;;5067052;28;20554;-81
2022/05/18 09:04:31;;;;;;;5.93;1.77;;;26.20;86.90;;;;;;5049931;28;20117;-79
2022/05/18 09:07:07;;;;;;;3.63;1.80;;;26.20;72.20;;;;;;5049844;28;20047;-80
2022/05/18 09:12:25;;;;;;;4.50;1.90;;;26.30;82.10;;;;;;5066027;28;20109;-80
2022/05/18 09:14:52;;;;;;;5.93;2.03;;;26.40;83.70;;;;;;5066736;28;20488;-79
2022/05/18 09:17:43;;;;;;;5.32;2.00;;;26.50;81.70;;;;;;5049062;28;20047;-80
2022/05/18 09:20:23;;;;;;;5.28;2.47;;;26.50;79.10;;;;;;5049299;28;20050;-81
2022/05/18 09:23:08;;;;;;;5.03;2.10;;;26.60;70.70;;;;;;5068158;28;20423;-81
2022/05/18 09:25:34;;;;;;;3.90;2.10;;;26.70;70.00;;;;;;5066328;28;20056;-80
2022/05/18 09:28:05;;;;;;;2.92;2.08;;;26.80;77.20;;;;;;5066381;28;20921;-80
2022/05/18 09:31:00;;;;;;;5.68;2.50;;;26.80;76.10;;;;;;5067071;28;20059;-80
2022/05/18 09:34:03;;;;;;;3.38;2.10;;;26.90;69.60;;;;;;5064799;28;20057;-79
2022/05/18 09:37:09;;;;;;;3.72;1.85;;;26.90;69.50;;;;;;5065968;28;20052;-79
2022/05/18 09:39:41;;;;;;;7.72;2.47;;;27.00;64.90;;;;;;5059098;28;20053;-79
2022/05/18 09:42:16;;;;;;;4.15;2.33;;;27.00;73.90;;;;;;5048492;28;20044;-79
2022/05/18 09:45:02;;;;;;;4.20;1.98;;;27.10;67.70;;;;;;5066378;28;20135;-79
2022/05/18 09:47:32;;;;;;;5.78;2.35;;;27.30;66.50;;;;;;5066492;28;20052;-79
2022/05/18 09:50:03;;;;;;;6.18;2.17;;;27.50;71.50;;;;;;5065174;28;20123;-80
2022/05/18 09:52:30;;;;;;;4.20;2.50;;;27.60;69.20;;;;;;5066337;28;20488;-80
2022/05/18 09:55:01;;;;;;;9.85;3.05;;;27.70;69.10;;;;;;5048842;28;20041;-80
2022/05/18 09:57:35;;;;;;;7.85;3.33;;;27.80;65.80;;;;;;5065912;28;20056;-80
2022/05/18 10:00:11;;;;;;;8.60;3.30;;;27.90;64.50;;;;;;5049808;28;20079;-80
2022/05/18 10:08:20;;;;;;;4.80;2.97;;;28.20;64.00;;;;;;5065381;28;20131;-80
2022/05/18 10:10:47;;;;;;;6.40;3.40;;;28.20;65.00;;;;;;5049393;28;20419;-80
2022/05/18 10:13:15;;;;;;;5.47;3.50;;;28.30;66.30;;;;;;5066695;28;20106;-78
2022/05/18 10:15:45;;;;;;;7.13;3.33;;;28.40;65.70;;;;;;5064700;28;20050;-79
2022/05/18 10:18:23;;;;;;;5.78;2.65;;;28.60;63.20;;;;;;5066181;28;20040;-79
2022/05/18 10:21:20;;;;;;;5.47;2.88;;;28.60;63.50;;;;;;5066397;28;20044;-79
2022/05/18 10:24:01;;;;;;;5.97;2.72;;;28.70;56.60;;;;;;5049581;28;20048;-79
2022/05/18 10:26:35;;;;;;;5.30;2.80;;;28.70;60.50;;;;;;5051039;28;20055;-79
2022/05/18 10:29:21;;;;;;;4.35;2.55;;;28.70;61.30;;;;;;5067539;28;20044;-80
2022/05/18 10:32:18;;;;;;;4.57;3.10;;;28.80;59.80;;;;;;5071177;28;20077;-79
2022/05/18 10:34:49;;;;;;;6.80;3.13;;;28.90;57.30;;;;;;5071887;28;20385;-79
2022/05/18 10:37:25;;;;;;;6.28;2.90;;;29.00;59.40;;;;;;5051780;28;20102;-78
2022/05/18 10:39:55;;;;;;;5.03;2.63;;;29.10;57.90;;;;;;5069882;28;20376;-80
2022/05/18 10:42:23;;;;;;;7.75;2.92;;;29.20;60.00;;;;;;5052200;28;20044;-79
2022/05/18 10:44:50;;;;;;;7.05;3.20;;;29.50;59.80;;;;;;5069101;28;20040;-80
2022/05/18 10:47:26;;;;;;;4.68;2.40;;;29.60;58.20;;;;;;5069733;28;20045;-82
2022/05/18 10:50:09;;;;;;;6.50;3.55;;;29.60;57.70;;;;;;5068332;28;20052;-79
2022/05/18 10:52:34;;;;;;;6.78;3.55;;;29.50;57.40;;;;;;5054812;28;20040;-80
2022/05/18 10:55:22;;;;;;;6.28;3.97;;;29.40;57.70;;;;;;5068036;28;20044;-80
2022/05/18 10:58:11;;;;;;;10.27;5.20;;;29.40;57.20;;;;;;5068643;28;20456;-80
2022/05/18 11:00:48;;;;;;;8.13;5.47;;;29.50;58.20;;;;;;5052830;28;20128;-82
2022/05/18 11:03:28;;;;;;;7.55;4.90;;;29.40;58.60;;;;;;5067825;28;20044;-82
2022/05/18 11:06:02;;;;;;;8.45;4.95;;;29.40;59.10;;;;;;5052885;28;20048;-81
2022/05/18 11:08:31;;;;;;;7.40;4.15;;;29.40;59.70;;;;;;5070618;28;20040;-81
2022/05/18 11:11:31;;;;;;;7.72;4.30;;;29.40;60.40;;;;;;5051322;28;20091;-81
2022/05/18 11:14:19;;;;;;;9.60;4.13;;;29.60;57.00;;;;;;5069036;28;20079;-79
2022/05/18 11:35:33;;;;;;;6.68;4.03;;;30.00;55.90;;;;;;5087320;27;20397;-76
2022/05/18 11:38:46;;;;;;;9.52;5.15;;;30.50;56.30;;;;;;5084891;28;20074;-79
2022/05/18 11:41:32;;;;;;;7.65;5.00;;;30.30;54.00;;;;;;5062151;28;20392;-79
2022/05/18 11:44:10;;;;;;;8.85;5.10;;;30.30;57.50;;;;;;5067457;28;20044;-81
2022/05/18 11:46:39;;;;;;;7.07;5.95;;;30.40;56.40;;;;;;5067937;28;20080;-81
2022/05/18 11:49:09;;;;;;;14.35;5.22;;;30.50;56.30;;;;;;5083811;28;20036;-81
2022/05/18 11:52:15;;;;;;;9.85;4.90;;;30.60;56.10;;;;;;5084455;28;20048;-81
2022/05/18 11:55:00;;;;;;;7.30;5.10;;;30.80;55.80;;;;;;5084056;28;20036;-81
2022/05/18 11:57:41;;;;;;;7.30;4.97;;;31.00;56.60;;;;;;5083907;28;20381;-81
2022/05/18 12:00:51;;;;;;;9.10;4.82;;;31.10;54.20;;;;;;5084611;28;20060;-81
2022/05/18 12:03:30;;;;;;;7.57;5.45;;;31.10;55.70;;;;;;5069814;28;20049;-82
2022/05/18 12:06:23;;;;;;;7.55;4.78;;;31.60;56.60;;;;;;5087022;28;20040;-81
2022/05/18 12:08:57;;;;;;;10.07;5.80;;;31.20;55.10;;;;;;5069486;28;20048;-80
2022/05/18 12:11:44;;;;;;;7.53;5.43;;;31.30;56.20;;;;;;5082983;28;20036;-79
2022/05/18 12:14:49;;;;;;;6.43;4.28;;;31.40;55.70;;;;;;5083286;28;20044;-80
2022/05/18 12:17:34;;;;;;;9.65;5.60;;;31.30;57.10;;;;;;5083694;28;20079;-79
2022/05/18 12:20:05;;;;;;;8.45;5.13;;;31.00;56.00;;;;;;5083300;28;20140;-80
2022/05/18 12:22:36;;;;;;;12.02;5.47;;;30.80;57.70;;;;;;5083177;28;20040;-79
2022/05/18 12:25:05;;;;;;;12.60;5.90;;;30.80;56.90;;;;;;5066863;28;20052;-81
2022/05/18 12:27:31;;;;;;;12.20;6.30;;;30.70;57.50;;;;;;5082775;28;20044;-80
2022/05/18 12:30:00;;;;;;;9.48;4.70;;;30.80;57.90;;;;;;5066836;28;20036;-79
2022/05/18 12:32:26;;;;;;;12.02;5.22;;;31.00;57.40;;;;;;5083859;28;20500;-80
2022/05/18 12:35:02;;;;;;;12.45;5.63;;;31.00;57.40;;;;;;5093825;28;20066;-80
2022/05/18 12:38:03;;;;;;;6.90;4.60;;;31.00;56.90;;;;;;5089701;28;20048;-83
2022/05/18 12:40:48;;;;;;;7.05;4.60;;;30.90;55.60;;;;;;5059206;28;20044;-81
2022/05/18 12:43:35;;;;;;;12.52;5.80;;;30.70;57.00;;;;;;5091350;28;20089;-81
2022/05/18 12:46:20;;;;;;;9.70;7.28;;;30.50;57.10;;;;;;5089517;28;20051;-79
2022/05/18 12:48:59;;;;;;;11.65;5.80;;;30.20;57.80;;;;;;5090944;28;20048;-80
2022/05/18 12:51:29;;;;;;;8.73;4.90;;;29.90;58.40;;;;;;5091768;28;20040;-81
2022/05/18 12:54:12;;;;;;;13.35;5.60;;;29.70;59.80;;;;;;5089343;28;20157;-78
2022/05/18 12:56:38;;;;;;;9.73;5.07;;;29.50;60.70;;;;;;5090298;28;20047;-77
2022/05/18 12:59:18;;;;;;;11.45;8.57;;;29.10;62.40;;;;;;5090172;28;20490;-79
2022/05/18 13:01:50;;;;;;;7.40;4.28;;;28.80;64.40;;;;;;5072336;28;20048;-79
2022/05/18 13:04:16;;;;;;;7.18;4.65;;;28.60;66.90;;;;;;5073709;28;20048;-78
2022/05/18 13:07:11;;;;;;;16.00;11.85;;;28.60;69.10;;;;;;5089530;28;20048;-78
2022/05/18 13:09:39;;;;;;;15.85;10.25;;;28.60;72.00;;;;;;5081870;28;20051;-79
2022/05/18 13:12:17;;;;;;;17.80;11.68;;;28.50;75.30;;;;;;5072791;28;20101;-81
2022/05/18 13:15:03;;;;;;;19.13;11.93;;;28.40;77.30;;;;;;5088552;28;20044;-85
2022/05/18 13:17:51;;;;;;;21.30;12.90;;;28.30;79.00;;;;;;5089300;28;20037;-81
2022/05/18 13:20:25;;;;;;;21.58;13.73;;;28.20;79.20;;;;;;5089470;28;20040;-82
2022/05/18 13:23:05;;;;;;;21.35;13.63;;;28.10;82.00;;;;;;5088657;28;20097;-82
2022/05/18 13:25:37;;;;;;;19.05;12.20;;;27.90;81.60;;;;;;5089356;28;20051;-81
2022/05/18 13:28:07;;;;;;;19.83;12.75;;;27.70;84.80;;;;;;5089663;28;20096;-82
2022/05/18 13:30:43;;;;;;;19.27;12.95;;;27.60;84.50;;;;;;5088930;28;20127;-81
2022/05/18 13:33:11;;;;;;;22.73;13.02;;;27.50;86.00;;;;;;5088931;28;20471;-81
2022/05/18 13:35:37;;;;;;;21.20;13.80;;;27.70;87.70;;;;;;5088382;28;20055;-81
2022/05/18 13:38:14;;;;;;;20.80;12.73;;;27.80;86.40;;;;;;5089307;28;20040;-82
2022/05/18 13:41:13;;;;;;;21.95;12.82;;;27.90;87.10;;;;;;5088196;28;20063;-81